Terminal Aerodrome Forecast
Issued by NWS

Home | Current Version | Previous Version | Text Only | Print | Product List | Glossary On
Versions: 1 2 3 4 5 6 7 8 9 10 11 12 13 14 15 16 17 18 19 20 21 22 23 24 25 26 27 28 29 30 31 32 33 34 35 36 37
027
FTUS45 KSLC 081523 AAB
TAFOGD
TAF AMD
KOGD 081523Z 0815/0912 17006KT P6SM SKC
      TEMPO 0815/0817 6SM BR
     FM081800 30004KT 6SM HZ FEW150
     FM090300 17005KT 5SM BR SKC
     FM090900 VRB03KT 2SM BR SKC=

USA.gov is the U.S. government's official web portal to all federal, state and local government web resources and services.